sensor_id;sensor_type;location;lat;lon;timestamp;temperature;humidity
74511;DHT22;62991;50.040;18.400;2022-12-10T00:01:04;4.50;64.60
74511;DHT22;62991;50.040;18.400;2022-12-10T00:04:05;4.50;64.70
74511;DHT22;62991;50.040;18.400;2022-12-10T00:07:05;4.50;64.60
74511;DHT22;62991;50.040;18.400;2022-12-10T00:10:06;4.50;64.60
74511;DHT22;62991;50.040;18.400;2022-12-10T00:13:07;4.50;64.70
74511;DHT22;62991;50.040;18.400;2022-12-10T00:16:10;4.50;64.70
74511;DHT22;62991;50.040;18.400;2022-12-10T00:19:11;4.60;64.60
74511;DHT22;62991;50.040;18.400;2022-12-10T00:22:11;4.60;64.60
74511;DHT22;62991;50.040;18.400;2022-12-10T00:25:12;4.60;64.70
74511;DHT22;62991;50.040;18.400;2022-12-10T00:28:13;4.50;64.70
74511;DHT22;62991;50.040;18.400;2022-12-10T00:31:16;4.50;64.70
74511;DHT22;62991;50.040;18.400;2022-12-10T00:34:17;4.50;64.80
74511;DHT22;62991;50.040;18.400;2022-12-10T00:37:18;4.50;64.80
74511;DHT22;62991;50.040;18.400;2022-12-10T00:40:18;4.50;64.80
74511;DHT22;62991;50.040;18.400;2022-12-10T00:43:19;4.50;64.80
74511;DHT22;62991;50.040;18.400;2022-12-10T00:46:20;4.50;64.80
74511;DHT22;62991;50.040;18.400;2022-12-10T00:49:21;4.50;64.80
74511;DHT22;62991;50.040;18.400;2022-12-10T00:52:23;4.50;64.80
74511;DHT22;62991;50.040;18.400;2022-12-10T00:55:24;4.50;64.90
74511;DHT22;62991;50.040;18.400;2022-12-10T00:58:27;4.50;64.80
74511;DHT22;62991;50.040;18.400;2022-12-10T01:01:34;4.50;64.90
74511;DHT22;62991;50.040;18.400;2022-12-10T01:04:35;4.50;64.80
74511;DHT22;62991;50.040;18.400;2022-12-10T01:07:36;4.60;64.90
74511;DHT22;62991;50.040;18.400;2022-12-10T01:10:37;4.60;64.80
74511;DHT22;62991;50.040;18.400;2022-12-10T01:13:38;4.60;64.90
74511;DHT22;62991;50.040;18.400;2022-12-10T01:16:39;4.60;64.80
74511;DHT22;62991;50.040;18.400;2022-12-10T01:19:40;4.70;64.80
74511;DHT22;62991;50.040;18.400;2022-12-10T01:22:40;4.70;64.80
74511;DHT22;62991;50.040;18.400;2022-12-10T01:25:41;4.70;64.70
74511;DHT22;62991;50.040;18.400;2022-12-10T01:28:43;4.70;64.80
74511;DHT22;62991;50.040;18.400;2022-12-10T01:31:44;4.80;64.70
74511;DHT22;62991;50.040;18.400;2022-12-10T01:34:44;4.80;64.70
74511;DHT22;62991;50.040;18.400;2022-12-10T01:37:45;4.80;64.70
74511;DHT22;62991;50.040;18.400;2022-12-10T01:40:46;4.80;64.70
74511;DHT22;62991;50.040;18.400;2022-12-10T01:46:56;4.80;64.70
74511;DHT22;62991;50.040;18.400;2022-12-10T01:49:58;4.80;64.60
74511;DHT22;62991;50.040;18.400;2022-12-10T01:52:58;4.80;64.70
74511;DHT22;62991;50.040;18.400;2022-12-10T01:55:59;4.80;64.70
74511;DHT22;62991;50.040;18.400;2022-12-10T01:59:00;4.80;64.70
74511;DHT22;62991;50.040;18.400;2022-12-10T02:05:34;4.80;64.70
74511;DHT22;62991;50.040;18.400;2022-12-10T02:12:21;4.80;64.70
74511;DHT22;62991;50.040;18.400;2022-12-10T02:15:31;4.80;64.60
74511;DHT22;62991;50.040;18.400;2022-12-10T02:18:42;4.80;64.60
74511;DHT22;62991;50.040;18.400;2022-12-10T02:21:45;4.70;64.60
74511;DHT22;62991;50.040;18.400;2022-12-10T02:24:48;4.70;64.70
74511;DHT22;62991;50.040;18.400;2022-12-10T02:28:17;4.70;64.80
74511;DHT22;62991;50.040;18.400;2022-12-10T02:31:24;4.70;64.80
74511;DHT22;62991;50.040;18.400;2022-12-10T02:34:27;4.60;64.90
74511;DHT22;62991;50.040;18.400;2022-12-10T02:37:34;4.70;64.90
74511;DHT22;62991;50.040;18.400;2022-12-10T02:40:37;4.70;64.90
74511;DHT22;62991;50.040;18.400;2022-12-10T02:43:38;4.70;64.80
74511;DHT22;62991;50.040;18.400;2022-12-10T02:46:40;4.80;64.80
74511;DHT22;62991;50.040;18.400;2022-12-10T02:49:43;4.80;64.80
74511;DHT22;62991;50.040;18.400;2022-12-10T02:52:46;4.80;64.80
74511;DHT22;62991;50.040;18.400;2022-12-10T02:59:43;4.80;64.80
74511;DHT22;62991;50.040;18.400;2022-12-10T03:03:25;4.80;64.80
74511;DHT22;62991;50.040;18.400;2022-12-10T03:06:38;4.80;64.80
74511;DHT22;62991;50.040;18.400;2022-12-10T03:09:51;4.80;64.80
74511;DHT22;62991;50.040;18.400;2022-12-10T03:13:03;4.80;64.70
74511;DHT22;62991;50.040;18.400;2022-12-10T03:16:07;4.80;64.80
74511;DHT22;62991;50.040;18.400;2022-12-10T03:19:16;4.80;64.80
74511;DHT22;62991;50.040;18.400;2022-12-10T03:22:19;4.80;64.80
74511;DHT22;62991;50.040;18.400;2022-12-10T03:25:24;4.80;64.80
74511;DHT22;62991;50.040;18.400;2022-12-10T03:28:26;4.80;64.80
74511;DHT22;62991;50.040;18.400;2022-12-10T03:31:27;4.80;64.80
74511;DHT22;62991;50.040;18.400;2022-12-10T03:34:29;4.90;64.80
74511;DHT22;62991;50.040;18.400;2022-12-10T03:37:30;4.80;64.70
74511;DHT22;62991;50.040;18.400;2022-12-10T03:40:31;4.80;64.70
74511;DHT22;62991;50.040;18.400;2022-12-10T03:43:32;4.80;64.80
74511;DHT22;62991;50.040;18.400;2022-12-10T03:46:33;4.80;64.80
74511;DHT22;62991;50.040;18.400;2022-12-10T03:49:34;4.80;64.80
74511;DHT22;62991;50.040;18.400;2022-12-10T03:52:35;4.90;64.80
74511;DHT22;62991;50.040;18.400;2022-12-10T03:55:35;4.80;64.80
74511;DHT22;62991;50.040;18.400;2022-12-10T03:58:36;4.80;64.90
74511;DHT22;62991;50.040;18.400;2022-12-10T04:01:37;4.70;64.90
74511;DHT22;62991;50.040;18.400;2022-12-10T04:04:37;4.70;65.00
74511;DHT22;62991;50.040;18.400;2022-12-10T04:07:38;4.70;64.90
74511;DHT22;62991;50.040;18.400;2022-12-10T04:10:39;4.70;64.90
74511;DHT22;62991;50.040;18.400;2022-12-10T04:13:40;4.70;65.00
74511;DHT22;62991;50.040;18.400;2022-12-10T04:17:00;4.80;64.90
74511;DHT22;62991;50.040;18.400;2022-12-10T04:20:01;4.80;64.90
74511;DHT22;62991;50.040;18.400;2022-12-10T04:23:01;4.80;64.90
74511;DHT22;62991;50.040;18.400;2022-12-10T04:26:20;4.80;64.90
74511;DHT22;62991;50.040;18.400;2022-12-10T04:29:40;4.80;64.90
74511;DHT22;62991;50.040;18.400;2022-12-10T04:32:40;4.80;64.80
74511;DHT22;62991;50.040;18.400;2022-12-10T04:35:41;4.80;64.90
74511;DHT22;62991;50.040;18.400;2022-12-10T04:38:42;4.90;64.80
74511;DHT22;62991;50.040;18.400;2022-12-10T04:41:44;4.80;64.80
74511;DHT22;62991;50.040;18.400;2022-12-10T04:44:45;4.80;64.90
74511;DHT22;62991;50.040;18.400;2022-12-10T04:47:45;4.80;64.80
74511;DHT22;62991;50.040;18.400;2022-12-10T04:50:46;4.80;64.90
74511;DHT22;62991;50.040;18.400;2022-12-10T04:53:47;4.80;64.90
74511;DHT22;62991;50.040;18.400;2022-12-10T04:56:47;4.80;64.80
74511;DHT22;62991;50.040;18.400;2022-12-10T04:59:48;4.80;64.90
74511;DHT22;62991;50.040;18.400;2022-12-10T05:02:49;4.90;64.90
74511;DHT22;62991;50.040;18.400;2022-12-10T05:05:50;4.90;64.90
74511;DHT22;62991;50.040;18.400;2022-12-10T05:08:50;4.90;64.90
74511;DHT22;62991;50.040;18.400;2022-12-10T05:11:51;4.90;64.80
74511;DHT22;62991;50.040;18.400;2022-12-10T05:14:52;4.90;64.80
74511;DHT22;62991;50.040;18.400;2022-12-10T05:17:52;4.90;64.80
74511;DHT22;62991;50.040;18.400;2022-12-10T05:20:53;4.90;64.80
74511;DHT22;62991;50.040;18.400;2022-12-10T05:23:53;4.90;64.90
74511;DHT22;62991;50.040;18.400;2022-12-10T05:26:54;4.80;64.90
74511;DHT22;62991;50.040;18.400;2022-12-10T05:29:56;4.80;64.90
74511;DHT22;62991;50.040;18.400;2022-12-10T05:32:57;4.80;64.90
74511;DHT22;62991;50.040;18.400;2022-12-10T05:36:00;4.80;64.90
74511;DHT22;62991;50.040;18.400;2022-12-10T05:39:02;4.70;64.90
74511;DHT22;62991;50.040;18.400;2022-12-10T05:42:03;4.70;65.00
74511;DHT22;62991;50.040;18.400;2022-12-10T05:45:04;4.70;65.10
74511;DHT22;62991;50.040;18.400;2022-12-10T05:48:05;4.70;65.10
74511;DHT22;62991;50.040;18.400;2022-12-10T05:51:08;4.70;65.20
74511;DHT22;62991;50.040;18.400;2022-12-10T05:54:09;4.70;65.10
74511;DHT22;62991;50.040;18.400;2022-12-10T05:57:10;4.70;65.10
74511;DHT22;62991;50.040;18.400;2022-12-10T06:00:11;4.70;65.10
74511;DHT22;62991;50.040;18.400;2022-12-10T06:03:12;4.70;65.10
74511;DHT22;62991;50.040;18.400;2022-12-10T06:06:13;4.70;65.10
74511;DHT22;62991;50.040;18.400;2022-12-10T06:09:14;4.70;65.10
74511;DHT22;62991;50.040;18.400;2022-12-10T06:12:14;4.80;64.90
74511;DHT22;62991;50.040;18.400;2022-12-10T06:15:15;4.80;65.00
74511;DHT22;62991;50.040;18.400;2022-12-10T06:18:16;4.80;65.00
74511;DHT22;62991;50.040;18.400;2022-12-10T06:21:18;4.80;65.00
74511;DHT22;62991;50.040;18.400;2022-12-10T06:24:18;4.80;65.00
74511;DHT22;62991;50.040;18.400;2022-12-10T06:27:19;4.80;65.00
74511;DHT22;62991;50.040;18.400;2022-12-10T06:30:20;4.80;65.00
74511;DHT22;62991;50.040;18.400;2022-12-10T06:33:20;4.80;64.90
74511;DHT22;62991;50.040;18.400;2022-12-10T06:36:21;4.80;65.00
74511;DHT22;62991;50.040;18.400;2022-12-10T06:39:22;4.80;64.90
74511;DHT22;62991;50.040;18.400;2022-12-10T06:42:22;4.80;65.00
74511;DHT22;62991;50.040;18.400;2022-12-10T06:45:23;4.80;65.00
74511;DHT22;62991;50.040;18.400;2022-12-10T06:48:24;4.80;65.00
74511;DHT22;62991;50.040;18.400;2022-12-10T06:51:25;4.80;65.00
74511;DHT22;62991;50.040;18.400;2022-12-10T06:54:25;4.80;65.00
74511;DHT22;62991;50.040;18.400;2022-12-10T06:57:26;4.90;65.00
74511;DHT22;62991;50.040;18.400;2022-12-10T07:00:27;4.90;65.00
74511;DHT22;62991;50.040;18.400;2022-12-10T07:03:27;4.90;65.00
74511;DHT22;62991;50.040;18.400;2022-12-10T07:06:30;4.90;65.00
74511;DHT22;62991;50.040;18.400;2022-12-10T07:09:32;5.00;65.00
74511;DHT22;62991;50.040;18.400;2022-12-10T07:12:32;5.00;64.90
74511;DHT22;62991;50.040;18.400;2022-12-10T07:15:33;5.00;64.90
74511;DHT22;62991;50.040;18.400;2022-12-10T07:18:34;5.00;64.90
74511;DHT22;62991;50.040;18.400;2022-12-10T07:21:36;5.00;64.90
74511;DHT22;62991;50.040;18.400;2022-12-10T07:24:37;5.10;64.90
74511;DHT22;62991;50.040;18.400;2022-12-10T07:27:38;5.10;64.80
74511;DHT22;62991;50.040;18.400;2022-12-10T07:30:39;5.10;64.90
74511;DHT22;62991;50.040;18.400;2022-12-10T07:33:39;5.10;64.90
74511;DHT22;62991;50.040;18.400;2022-12-10T07:36:41;5.10;64.80
74511;DHT22;62991;50.040;18.400;2022-12-10T07:39:41;5.10;64.80
74511;DHT22;62991;50.040;18.400;2022-12-10T07:42:43;5.10;64.80
74511;DHT22;62991;50.040;18.400;2022-12-10T07:45:44;5.10;64.80
74511;DHT22;62991;50.040;18.400;2022-12-10T07:48:46;5.10;64.80
74511;DHT22;62991;50.040;18.400;2022-12-10T07:51:49;5.10;64.80
74511;DHT22;62991;50.040;18.400;2022-12-10T07:54:50;5.10;64.90
74511;DHT22;62991;50.040;18.400;2022-12-10T07:57:51;5.10;64.80
74511;DHT22;62991;50.040;18.400;2022-12-10T08:00:51;5.10;64.80
74511;DHT22;62991;50.040;18.400;2022-12-10T08:03:53;5.00;64.90
74511;DHT22;62991;50.040;18.400;2022-12-10T08:06:56;5.00;64.90
74511;DHT22;62991;50.040;18.400;2022-12-10T08:09:57;5.00;64.90
74511;DHT22;62991;50.040;18.400;2022-12-10T08:12:57;5.00;64.90
74511;DHT22;62991;50.040;18.400;2022-12-10T08:16:03;5.00;64.90
74511;DHT22;62991;50.040;18.400;2022-12-10T08:19:04;5.00;64.90
74511;DHT22;62991;50.040;18.400;2022-12-10T08:22:04;5.00;64.90
74511;DHT22;62991;50.040;18.400;2022-12-10T08:25:05;5.10;64.90
74511;DHT22;62991;50.040;18.400;2022-12-10T08:28:06;5.10;64.90
74511;DHT22;62991;50.040;18.400;2022-12-10T08:31:10;5.10;64.80
74511;DHT22;62991;50.040;18.400;2022-12-10T08:34:13;5.10;64.80
74511;DHT22;62991;50.040;18.400;2022-12-10T08:37:14;5.10;64.90
74511;DHT22;62991;50.040;18.400;2022-12-10T08:40:15;5.00;64.90
74511;DHT22;62991;50.040;18.400;2022-12-10T08:43:15;5.00;64.90
74511;DHT22;62991;50.040;18.400;2022-12-10T08:46:16;5.00;64.90
74511;DHT22;62991;50.040;18.400;2022-12-10T08:49:17;5.00;64.90
74511;DHT22;62991;50.040;18.400;2022-12-10T08:52:17;5.00;64.90
74511;DHT22;62991;50.040;18.400;2022-12-10T08:55:18;5.00;64.90
74511;DHT22;62991;50.040;18.400;2022-12-10T08:58:20;5.00;64.90
74511;DHT22;62991;50.040;18.400;2022-12-10T09:01:20;5.00;64.90
74511;DHT22;62991;50.040;18.400;2022-12-10T09:04:21;5.00;64.90
74511;DHT22;62991;50.040;18.400;2022-12-10T09:07:22;4.90;65.00
74511;DHT22;62991;50.040;18.400;2022-12-10T09:10:22;4.90;65.00
74511;DHT22;62991;50.040;18.400;2022-12-10T09:13:23;4.90;65.10
74511;DHT22;62991;50.040;18.400;2022-12-10T09:16:30;4.90;65.10
74511;DHT22;62991;50.040;18.400;2022-12-10T09:19:31;4.90;65.10
74511;DHT22;62991;50.040;18.400;2022-12-10T09:22:32;4.80;65.10
74511;DHT22;62991;50.040;18.400;2022-12-10T09:25:36;4.80;65.10
74511;DHT22;62991;50.040;18.400;2022-12-10T09:28:37;4.80;65.20
74511;DHT22;62991;50.040;18.400;2022-12-10T09:31:38;4.80;65.10
74511;DHT22;62991;50.040;18.400;2022-12-10T09:34:39;4.80;65.10
74511;DHT22;62991;50.040;18.400;2022-12-10T09:37:40;4.80;65.20
74511;DHT22;62991;50.040;18.400;2022-12-10T09:40:48;4.80;65.20
74511;DHT22;62991;50.040;18.400;2022-12-10T09:47:08;4.80;65.20
74511;DHT22;62991;50.040;18.400;2022-12-10T09:50:34;4.80;65.20
74511;DHT22;62991;50.040;18.400;2022-12-10T09:53:38;4.80;65.10
74511;DHT22;62991;50.040;18.400;2022-12-10T09:56:38;4.80;65.10
74511;DHT22;62991;50.040;18.400;2022-12-10T09:59:43;4.80;65.20
74511;DHT22;62991;50.040;18.400;2022-12-10T10:02:47;4.80;65.20
74511;DHT22;62991;50.040;18.400;2022-12-10T10:05:54;4.80;65.20
74511;DHT22;62991;50.040;18.400;2022-12-10T10:08:58;4.90;65.30
74511;DHT22;62991;50.040;18.400;2022-12-10T10:12:00;4.90;65.30
74511;DHT22;62991;50.040;18.400;2022-12-10T10:15:14;4.90;65.20
74511;DHT22;62991;50.040;18.400;2022-12-10T10:18:35;4.90;65.20
74511;DHT22;62991;50.040;18.400;2022-12-10T10:21:43;4.90;65.20
74511;DHT22;62991;50.040;18.400;2022-12-10T10:24:45;4.90;65.10
74511;DHT22;62991;50.040;18.400;2022-12-10T10:27:46;5.00;65.10
74511;DHT22;62991;50.040;18.400;2022-12-10T10:30:47;5.00;65.10
74511;DHT22;62991;50.040;18.400;2022-12-10T10:34:00;5.00;65.10
74511;DHT22;62991;50.040;18.400;2022-12-10T10:37:03;5.00;65.10
74511;DHT22;62991;50.040;18.400;2022-12-10T10:40:05;5.10;65.10
74511;DHT22;62991;50.040;18.400;2022-12-10T10:43:06;5.10;65.00
74511;DHT22;62991;50.040;18.400;2022-12-10T10:46:27;5.10;65.00
74511;DHT22;62991;50.040;18.400;2022-12-10T10:49:30;5.10;65.00
74511;DHT22;62991;50.040;18.400;2022-12-10T10:52:38;5.10;65.10
74511;DHT22;62991;50.040;18.400;2022-12-10T10:55:41;5.10;65.00
74511;DHT22;62991;50.040;18.400;2022-12-10T11:02:24;5.10;65.00
74511;DHT22;62991;50.040;18.400;2022-12-10T11:05:29;5.10;65.00
74511;DHT22;62991;50.040;18.400;2022-12-10T11:08:30;5.10;65.00
74511;DHT22;62991;50.040;18.400;2022-12-10T11:11:36;5.10;65.00
74511;DHT22;62991;50.040;18.400;2022-12-10T11:14:44;5.10;65.00
74511;DHT22;62991;50.040;18.400;2022-12-10T11:17:48;5.10;65.00
74511;DHT22;62991;50.040;18.400;2022-12-10T11:21:03;5.00;65.00
74511;DHT22;62991;50.040;18.400;2022-12-10T11:24:11;5.00;65.10
74511;DHT22;62991;50.040;18.400;2022-12-10T11:27:23;5.00;65.10
74511;DHT22;62991;50.040;18.400;2022-12-10T11:30:26;5.00;65.10
74511;DHT22;62991;50.040;18.400;2022-12-10T11:33:37;5.00;65.10
74511;DHT22;62991;50.040;18.400;2022-12-10T11:40:02;5.10;65.00
74511;DHT22;62991;50.040;18.400;2022-12-10T11:59:59;5.10;65.00
74511;DHT22;62991;50.040;18.400;2022-12-10T12:13:04;5.10;65.00
74511;DHT22;62991;50.040;18.400;2022-12-10T12:16:13;5.10;65.00
74511;DHT22;62991;50.040;18.400;2022-12-10T12:19:24;5.10;65.00
74511;DHT22;62991;50.040;18.400;2022-12-10T12:22:37;5.20;65.00
74511;DHT22;62991;50.040;18.400;2022-12-10T12:25:44;5.20;65.00
74511;DHT22;62991;50.040;18.400;2022-12-10T12:32:05;5.30;65.10
74511;DHT22;62991;50.040;18.400;2022-12-10T12:35:14;5.30;65.00
74511;DHT22;62991;50.040;18.400;2022-12-10T12:45:14;5.40;64.90
74511;DHT22;62991;50.040;18.400;2022-12-10T12:51:32;5.40;64.90
74511;DHT22;62991;50.040;18.400;2022-12-10T12:54:36;5.40;64.90
74511;DHT22;62991;50.040;18.400;2022-12-10T12:57:58;5.40;64.80
74511;DHT22;62991;50.040;18.400;2022-12-10T13:01:41;5.40;64.90
74511;DHT22;62991;50.040;18.400;2022-12-10T13:04:44;5.40;64.90
74511;DHT22;62991;50.040;18.400;2022-12-10T13:11:27;5.40;64.90
74511;DHT22;62991;50.040;18.400;2022-12-10T13:14:36;5.40;64.70
74511;DHT22;62991;50.040;18.400;2022-12-10T13:27:56;5.40;64.80
74511;DHT22;62991;50.040;18.400;2022-12-10T13:34:33;5.40;64.90
74511;DHT22;62991;50.040;18.400;2022-12-10T13:40:38;5.40;64.70
74511;DHT22;62991;50.040;18.400;2022-12-10T13:44:00;5.40;64.70
74511;DHT22;62991;50.040;18.400;2022-12-10T13:47:47;5.40;64.70
74511;DHT22;62991;50.040;18.400;2022-12-10T13:54:31;5.40;64.80
74511;DHT22;62991;50.040;18.400;2022-12-10T14:04:41;5.40;64.70
74511;DHT22;62991;50.040;18.400;2022-12-10T14:07:44;5.40;64.70
74511;DHT22;62991;50.040;18.400;2022-12-10T14:10:47;5.40;64.70
74511;DHT22;62991;50.040;18.400;2022-12-10T14:13:52;5.40;64.70
74511;DHT22;62991;50.040;18.400;2022-12-10T14:16:54;5.40;64.70
74511;DHT22;62991;50.040;18.400;2022-12-10T14:19:55;5.40;64.70
74511;DHT22;62991;50.040;18.400;2022-12-10T14:22:56;5.30;64.80
74511;DHT22;62991;50.040;18.400;2022-12-10T14:26:30;5.30;64.80
74511;DHT22;62991;50.040;18.400;2022-12-10T14:29:31;5.30;64.90
74511;DHT22;62991;50.040;18.400;2022-12-10T14:32:37;5.30;64.90
74511;DHT22;62991;50.040;18.400;2022-12-10T14:35:39;5.30;64.90
74511;DHT22;62991;50.040;18.400;2022-12-10T14:38:40;5.30;64.90
74511;DHT22;62991;50.040;18.400;2022-12-10T14:41:41;5.30;64.90
74511;DHT22;62991;50.040;18.400;2022-12-10T14:44:43;5.30;64.90
74511;DHT22;62991;50.040;18.400;2022-12-10T14:47:44;5.30;64.90
74511;DHT22;62991;50.040;18.400;2022-12-10T14:50:45;5.30;64.80
74511;DHT22;62991;50.040;18.400;2022-12-10T14:53:49;5.30;64.80
74511;DHT22;62991;50.040;18.400;2022-12-10T14:56:51;5.30;64.90
74511;DHT22;62991;50.040;18.400;2022-12-10T15:02:59;5.30;64.90
74511;DHT22;62991;50.040;18.400;2022-12-10T15:06:02;5.30;64.90
74511;DHT22;62991;50.040;18.400;2022-12-10T15:09:14;5.30;64.90
74511;DHT22;62991;50.040;18.400;2022-12-10T15:12:41;5.30;64.90
74511;DHT22;62991;50.040;18.400;2022-12-10T15:15:48;5.30;64.90
74511;DHT22;62991;50.040;18.400;2022-12-10T15:18:50;5.40;64.90
74511;DHT22;62991;50.040;18.400;2022-12-10T15:21:54;5.30;64.90
74511;DHT22;62991;50.040;18.400;2022-12-10T15:24:58;5.30;64.80
74511;DHT22;62991;50.040;18.400;2022-12-10T15:28:25;5.30;64.80
74511;DHT22;62991;50.040;18.400;2022-12-10T15:34:29;5.30;64.90
74511;DHT22;62991;50.040;18.400;2022-12-10T15:37:39;5.30;65.00
74511;DHT22;62991;50.040;18.400;2022-12-10T15:40:40;5.30;65.00
74511;DHT22;62991;50.040;18.400;2022-12-10T15:44:01;5.30;64.90
74511;DHT22;62991;50.040;18.400;2022-12-10T15:50:10;5.20;64.90
74511;DHT22;62991;50.040;18.400;2022-12-10T15:53:16;5.20;64.90
74511;DHT22;62991;50.040;18.400;2022-12-10T15:56:20;5.20;64.90
74511;DHT22;62991;50.040;18.400;2022-12-10T15:59:20;5.20;65.00
74511;DHT22;62991;50.040;18.400;2022-12-10T16:02:40;5.20;65.00
74511;DHT22;62991;50.040;18.400;2022-12-10T16:05:41;5.10;65.00
74511;DHT22;62991;50.040;18.400;2022-12-10T16:08:42;5.10;65.00
74511;DHT22;62991;50.040;18.400;2022-12-10T16:11:43;5.10;65.00
74511;DHT22;62991;50.040;18.400;2022-12-10T16:14:54;5.00;65.00
74511;DHT22;62991;50.040;18.400;2022-12-10T16:18:07;4.90;65.10
74511;DHT22;62991;50.040;18.400;2022-12-10T16:21:09;4.90;65.20
74511;DHT22;62991;50.040;18.400;2022-12-10T16:24:09;4.90;65.20
74511;DHT22;62991;50.040;18.400;2022-12-10T16:27:15;4.90;65.20
74511;DHT22;62991;50.040;18.400;2022-12-10T16:30:22;4.90;65.10
74511;DHT22;62991;50.040;18.400;2022-12-10T16:33:25;5.00;65.10
74511;DHT22;62991;50.040;18.400;2022-12-10T16:36:26;5.00;65.00
74511;DHT22;62991;50.040;18.400;2022-12-10T16:39:27;4.90;65.00
74511;DHT22;62991;50.040;18.400;2022-12-10T16:42:29;4.90;65.10
74511;DHT22;62991;50.040;18.400;2022-12-10T16:45:39;4.80;65.10
74511;DHT22;62991;50.040;18.400;2022-12-10T16:48:40;4.70;65.20
74511;DHT22;62991;50.040;18.400;2022-12-10T16:51:41;4.70;65.30
74511;DHT22;62991;50.040;18.400;2022-12-10T16:54:43;4.60;65.30
74511;DHT22;62991;50.040;18.400;2022-12-10T16:57:45;4.60;65.40
74511;DHT22;62991;50.040;18.400;2022-12-10T17:00:48;4.60;65.40
74511;DHT22;62991;50.040;18.400;2022-12-10T17:03:51;4.60;65.40
74511;DHT22;62991;50.040;18.400;2022-12-10T17:06:52;4.60;65.40
74511;DHT22;62991;50.040;18.400;2022-12-10T17:09:53;4.60;65.40
74511;DHT22;62991;50.040;18.400;2022-12-10T17:12:54;4.60;65.40
74511;DHT22;62991;50.040;18.400;2022-12-10T17:15:55;4.60;65.30
74511;DHT22;62991;50.040;18.400;2022-12-10T17:18:57;4.70;65.30
74511;DHT22;62991;50.040;18.400;2022-12-10T17:21:58;4.70;65.30
74511;DHT22;62991;50.040;18.400;2022-12-10T17:24:58;4.70;65.30
74511;DHT22;62991;50.040;18.400;2022-12-10T17:27:59;4.70;65.30
74511;DHT22;62991;50.040;18.400;2022-12-10T17:31:00;4.70;65.20
74511;DHT22;62991;50.040;18.400;2022-12-10T17:34:00;4.70;65.20
74511;DHT22;62991;50.040;18.400;2022-12-10T17:37:01;4.70;65.30
74511;DHT22;62991;50.040;18.400;2022-12-10T17:40:22;4.70;65.30
74511;DHT22;62991;50.040;18.400;2022-12-10T17:43:23;4.70;65.20
74511;DHT22;62991;50.040;18.400;2022-12-10T17:46:25;4.70;65.20
74511;DHT22;62991;50.040;18.400;2022-12-10T17:49:26;4.70;65.20
74511;DHT22;62991;50.040;18.400;2022-12-10T17:52:27;4.70;65.20
74511;DHT22;62991;50.040;18.400;2022-12-10T17:55:28;4.70;65.20
74511;DHT22;62991;50.040;18.400;2022-12-10T17:58:28;4.70;65.20
74511;DHT22;62991;50.040;18.400;2022-12-10T18:01:29;4.70;65.20
74511;DHT22;62991;50.040;18.400;2022-12-10T18:04:30;4.70;65.10
74511;DHT22;62991;50.040;18.400;2022-12-10T18:07:31;4.70;65.20
74511;DHT22;62991;50.040;18.400;2022-12-10T18:10:33;4.70;65.30
74511;DHT22;62991;50.040;18.400;2022-12-10T18:13:34;4.60;65.30
74511;DHT22;62991;50.040;18.400;2022-12-10T18:16:35;4.70;65.40
74511;DHT22;62991;50.040;18.400;2022-12-10T18:19:36;4.70;65.50
74511;DHT22;62991;50.040;18.400;2022-12-10T18:22:36;4.70;65.50
74511;DHT22;62991;50.040;18.400;2022-12-10T18:25:38;4.80;65.50
74511;DHT22;62991;50.040;18.400;2022-12-10T18:31:42;4.80;65.30
74511;DHT22;62991;50.040;18.400;2022-12-10T18:34:43;4.80;65.40
74511;DHT22;62991;50.040;18.400;2022-12-10T18:37:44;4.90;65.30
74511;DHT22;62991;50.040;18.400;2022-12-10T18:40:45;4.90;65.20
74511;DHT22;62991;50.040;18.400;2022-12-10T18:43:46;4.90;65.20
74511;DHT22;62991;50.040;18.400;2022-12-10T18:46:47;4.90;65.10
74511;DHT22;62991;50.040;18.400;2022-12-10T18:49:48;4.90;65.10
74511;DHT22;62991;50.040;18.400;2022-12-10T18:52:49;4.90;65.10
74511;DHT22;62991;50.040;18.400;2022-12-10T18:55:50;4.80;65.10
74511;DHT22;62991;50.040;18.400;2022-12-10T18:58:51;4.80;65.20
74511;DHT22;62991;50.040;18.400;2022-12-10T19:01:52;4.70;65.30
74511;DHT22;62991;50.040;18.400;2022-12-10T19:04:53;4.70;65.30
74511;DHT22;62991;50.040;18.400;2022-12-10T19:07:53;4.70;65.30
74511;DHT22;62991;50.040;18.400;2022-12-10T19:10:54;4.70;65.40
74511;DHT22;62991;50.040;18.400;2022-12-10T19:13:55;4.70;65.30
74511;DHT22;62991;50.040;18.400;2022-12-10T19:16:56;4.70;65.20
74511;DHT22;62991;50.040;18.400;2022-12-10T19:19:58;4.70;65.20
74511;DHT22;62991;50.040;18.400;2022-12-10T19:22:58;4.60;65.30
74511;DHT22;62991;50.040;18.400;2022-12-10T19:25:59;4.60;65.30
74511;DHT22;62991;50.040;18.400;2022-12-10T19:29:02;4.60;65.40
74511;DHT22;62991;50.040;18.400;2022-12-10T19:32:03;4.60;65.30
74511;DHT22;62991;50.040;18.400;2022-12-10T19:35:04;4.60;65.40
74511;DHT22;62991;50.040;18.400;2022-12-10T19:38:05;4.60;65.30
74511;DHT22;62991;50.040;18.400;2022-12-10T19:41:06;4.60;65.40
74511;DHT22;62991;50.040;18.400;2022-12-10T19:44:06;4.60;65.50
74511;DHT22;62991;50.040;18.400;2022-12-10T19:47:15;4.60;65.50
74511;DHT22;62991;50.040;18.400;2022-12-10T19:50:18;4.60;65.40
74511;DHT22;62991;50.040;18.400;2022-12-10T19:53:20;4.60;65.50
74511;DHT22;62991;50.040;18.400;2022-12-10T19:59:24;4.60;65.40
74511;DHT22;62991;50.040;18.400;2022-12-10T20:02:24;4.60;65.40
74511;DHT22;62991;50.040;18.400;2022-12-10T20:05:26;4.60;65.40
74511;DHT22;62991;50.040;18.400;2022-12-10T20:08:26;4.60;65.40
74511;DHT22;62991;50.040;18.400;2022-12-10T20:11:28;4.50;65.50
74511;DHT22;62991;50.040;18.400;2022-12-10T20:14:28;4.50;65.60
74511;DHT22;62991;50.040;18.400;2022-12-10T20:17:29;4.50;65.60
74511;DHT22;62991;50.040;18.400;2022-12-10T20:20:30;4.50;65.60
74511;DHT22;62991;50.040;18.400;2022-12-10T20:23:30;4.50;65.60
74511;DHT22;62991;50.040;18.400;2022-12-10T20:26:34;4.50;65.60
74511;DHT22;62991;50.040;18.400;2022-12-10T20:29:35;4.50;65.60
74511;DHT22;62991;50.040;18.400;2022-12-10T20:32:35;4.50;65.50
74511;DHT22;62991;50.040;18.400;2022-12-10T20:35:36;4.50;65.50
74511;DHT22;62991;50.040;18.400;2022-12-10T20:38:37;4.50;65.60
74511;DHT22;62991;50.040;18.400;2022-12-10T20:41:37;4.50;65.50
74511;DHT22;62991;50.040;18.400;2022-12-10T20:44:38;4.50;65.50
74511;DHT22;62991;50.040;18.400;2022-12-10T20:47:39;4.50;65.50
74511;DHT22;62991;50.040;18.400;2022-12-10T20:50:39;4.50;65.50
74511;DHT22;62991;50.040;18.400;2022-12-10T20:53:40;4.50;65.50
74511;DHT22;62991;50.040;18.400;2022-12-10T20:56:41;4.40;65.50
74511;DHT22;62991;50.040;18.400;2022-12-10T20:59:41;4.40;65.50
74511;DHT22;62991;50.040;18.400;2022-12-10T21:02:43;4.30;65.60
74511;DHT22;62991;50.040;18.400;2022-12-10T21:05:44;4.30;65.60
74511;DHT22;62991;50.040;18.400;2022-12-10T21:08:45;4.20;65.60